• Join FlightAware (Why Join?)
  • Login
  • US Flag 
06:52AM EST


 

Airport Tracker/Info


-or-


 

Live Flight TrackerFlight Track Log ✈ NKS212 ✈ 04-Apr-2014 ✈ TIST / STT - KFLL

Flight Track Log - Related Links

Times and Time Zones

All times are in EDT time to prevent confusion due to time zone crossing. See the NKS212 flight status page for this flight to view local times or setup timezone preferences in your user account.

Time Position Orientation Groundspeed Altitude Reporting Facility
EDT Latitude Longitude Course Direction KTS MPH feet Rate Location/Type
04:31PM 18.2517 -65.0509 279° West 7,200  Level FlightAware ADS-B (TNCM / SXM)
04:32PM 18.2536 -65.0634 284° West 295 339 7,700 3,517 Climbing FlightAware ADS-B (TNCM / SXM)
04:32PM 18.2608 -65.0915 285° West 300 345 8,900 3,257 Climbing FlightAware ADS-B (TNCM / SXM)
04:32PM 18.2645 -65.1084 282° West 301 346 9,600 2,609 Climbing FlightAware ADS-B (TNCM / SXM)
04:33PM 18.2744 -65.1581 283° West 321 369 10,900 2,400 Climbing FlightAware ADS-B (TNCM / SXM)
04:33PM 18.2869 -65.2015 299° West 339 390 12,000 2,215 Climbing FlightAware ADS-B (TNCM / SXM)
04:34PM 18.3218 -65.2525 308° West 356 410 13,300 2,625 Climbing FlightAware ADS-B (TNCM / SXM)
04:34PM 18.3492 -65.2944 305° West 360 414 14,800 2,522 Climbing FlightAware ADS-B (TNCM / SXM)
04:35PM 18.3870 -65.3517 305° West 363 418 16,200 2,087 Climbing FlightAware ADS-B (TNCM / SXM)
04:35PM 18.4171 -65.3961 306° West 389 448 17,200 2,426 Climbing FlightAware ADS-B (TNCM / SXM)
04:36PM 18.4870 -65.4979 306° West 388 447 20,000 2,388 Climbing FlightAware ADS-B (TNCM / SXM)
04:37PM 18.5214 -65.5481 306° West 395 455 21,100 1,900 Climbing FlightAware ADS-B (TNCM / SXM)
04:37PM 18.5513 -65.5917 306° West 399 459 21,900 1,932 Climbing FlightAware ADS-B (TNCM / SXM)
04:38PM 18.5853 -65.6412 306° West 401 461 23,000 1,855 Climbing FlightAware ADS-B (TNCM / SXM)
04:38PM 18.6088 -65.6754 306° West 405 466 23,600 1,700 Climbing FlightAware ADS-B (TNCM / SXM)
04:39PM 18.6512 -65.7372 306° West 409 471 24,700 1,662 Climbing FlightAware ADS-B (TNCM / SXM)
04:39PM 18.6804 -65.7800 306° West 414 476 25,400 1,684 Climbing FlightAware ADS-B (TNCM / SXM)
04:40PM 18.7154 -65.8310 306° West 416 479 26,300 1,967 Climbing FlightAware ADS-B (TNCM / SXM)
04:40PM 18.7497 -65.8812 306° West 411 473 27,400 1,619 Climbing FlightAware ADS-B (TNCM / SXM)
04:41PM 18.7857 -65.9339 306° West 417 480 28,000 1,279 Climbing FlightAware ADS-B (TNCM / SXM)
04:41PM 18.8192 -65.9829 306° West 422 486 28,700 1,400 Climbing FlightAware ADS-B (TNCM / SXM)
04:42PM 18.8526 -66.0317 306° West 421 484 29,400 1,552 Climbing FlightAware ADS-B (TNCM / SXM)
04:42PM 18.8851 -66.0794 306° West 417 480 30,200 1,500 Climbing FlightAware ADS-B (TNCM / SXM)
04:43PM 18.9168 -66.1259 306° West 418 481 30,900 1,219 Climbing FlightAware ADS-B (TNCM / SXM)
04:44PM 18.9569 -66.1850 306° West 420 483 31,500 1,418 Climbing FlightAware ADS-B (TNCM / SXM)
04:45PM 19.0447 -66.3141 306° West 417 480 33,500 1,540 Climbing FlightAware ADS-B (TNCM / SXM)
04:45PM 19.0855 -66.3741 306° West 409 471 34,400 1,406 Climbing FlightAware ADS-B (TNCM / SXM)
04:46PM 19.1171 -66.4206 306° West 407 468 35,000 1,220 Climbing FlightAware ADS-B (TNCM / SXM)
04:46PM 19.1498 -66.4688 306° West 405 466 35,600 984 Climbing FlightAware ADS-B (TNCM / SXM)
04:47PM 19.1821 -66.5166 306° West 405 466 36,000 369 Climbing FlightAware ADS-B (TNCM / SXM)
04:47PM 19.2000 -66.5500 306° West 400 460 36,000  Level San Juan Center
04:48PM 19.2667 -66.6500 305° West 400 460 36,000  Level San Juan Center
04:49PM 19.3333 -66.7500 305° West 400 460 36,000  Level San Juan Center
04:50PM 19.4000 -66.8500 305° West 410 472 36,000  Level San Juan Center
04:52PM 19.4667 -66.9500 305° West 410 472 36,000  Level San Juan Center
04:53PM 19.5333 -67.0333 310° West 410 472 36,000  Level San Juan Center
04:54PM 19.6000 -67.1333 305° West 410 472 36,000  Level San Juan Center
04:55PM 19.6667 -67.2333 305° West 420 483 36,000  Level San Juan Center
04:56PM 19.7333 -67.3333 305° West 400 460 36,000  Level San Juan Center
04:57PM 19.8000 -67.4333 305° West 400 460 36,000  Level San Juan Center
04:58PM 19.8667 -67.5333 305° West 410 472 36,000  Level San Juan Center
04:59PM 19.9333 -67.6333 305° West 410 472 36,000  Level San Juan Center
05:00PM 20.0000 -67.7333 305° West 410 472 36,000  Level San Juan Center
05:01PM 20.0500 -67.8333 298° West 410 472 36,000  Level San Juan Center
05:02PM 20.1764 -67.9981 309° West 416 479 36,000  Level Miami Center
05:03PM 20.2406 -68.0997 304° West 416 479 36,000  Level Miami Center
05:04PM 20.2961 -68.1997 301° West 405 466 36,000  Level Miami Center
05:05PM 20.3558 -68.3042 301° West 405 466 36,000  Level Miami Center
05:06PM 20.4133 -68.4064 301° West 405 466 36,000  Level Miami Center
05:07PM 20.4711 -68.5111 301° West 410 472 36,000  Level Miami Center
05:08PM 20.5286 -68.6117 301° West 410 472 36,000  Level Miami Center
05:09PM 20.5900 -68.7117 303° West 410 472 36,000  Level Miami Center
05:10PM 20.6494 -68.8144 302° West 410 472 36,000  Level Miami Center
05:11PM 20.7069 -68.9172 301° West 410 472 36,000  Level Miami Center
05:12PM 20.7664 -69.0244 301° West 410 472 36,000  Level Miami Center
05:13PM 20.8239 -69.1275 301° West 410 472 36,000  Level Miami Center
05:14PM 20.8872 -69.2303 303° West 410 472 36,000  Level Miami Center
05:15PM 20.9422 -69.3336 300° West 410 472 36,000  Level Miami Center
05:16PM 21.0014 -69.4367 302° West 410 472 36,000  Level Miami Center
05:17PM 21.0606 -69.5378 302° West 410 472 36,000  Level Miami Center
05:18PM 21.1172 -69.6392 301° West 410 472 36,000  Level Miami Center
05:19PM 21.1742 -69.7428 301° West 410 472 36,000  Level Miami Center
05:20PM 21.2311 -69.8464 301° West 410 472 36,000  Level Miami Center
05:21PM 21.2919 -69.9500 302° West 410 472 36,000  Level Miami Center
05:22PM 21.3489 -70.0539 300° West 410 472 36,000  Level Miami Center
05:23PM 21.4056 -70.1578 300° West 410 472 36,000  Level Miami Center
05:24PM 21.4642 -70.2597 302° West 410 472 36,000  Level Miami Center
05:25PM 21.5228 -70.3636 301° West 410 472 36,000  Level Miami Center
05:26PM 21.5814 -70.4678 301° West 410 472 36,000  Level Miami Center
05:27PM 21.6378 -70.5700 301° West 410 472 36,000  Level Miami Center
05:28PM 21.6939 -70.6722 301° West 410 472 36,000  Level Miami Center
05:29PM 21.7481 -70.7722 300° West 405 466 36,000  Level Miami Center
05:30PM 21.8064 -70.8747 302° West 405 466 36,000  Level Miami Center
05:31PM 21.8625 -70.9747 301° West 400 460 36,000  Level Miami Center
05:32PM 21.9164 -71.0753 300° West 395 455 36,000  Level Miami Center
05:33PM 21.9722 -71.1781 300° West 390 449 36,000  Level Miami Center
05:34PM 22.0281 -71.2786 301° West 390 449 36,000  Level Miami Center
05:35PM 22.0839 -71.3769 302° West 390 449 36,000  Level Miami Center
05:36PM 22.1397 -71.4797 300° West 390 449 36,000  Level Miami Center
05:37PM 22.1956 -71.5806 301° West 390 449 36,000  Level Miami Center
05:38PM 22.2492 -71.6839 299° West 390 449 36,000  Level Miami Center
05:39PM 22.3047 -71.7847 301° West 390 449 36,000  Level Miami Center
05:40PM 22.3603 -71.8858 301° West 390 449 36,000  Level Miami Center
05:41PM 22.4136 -71.9869 300° West 390 449 36,000  Level Miami Center
05:42PM 22.4711 -72.0883 302° West 390 449 36,000  Level Miami Center
05:43PM 22.5244 -72.1897 300° West 390 449 36,000  Level Miami Center
05:44PM 22.5797 -72.2911 301° West 390 449 36,000  Level Miami Center
05:45PM 22.6369 -72.3925 301° West 390 449 36,000  Level Miami Center
05:46PM 22.6922 -72.4942 301° West 390 449 36,000  Level Miami Center
05:47PM 22.7431 -72.5983 298° West 390 449 36,000  Level Miami Center
05:48PM 22.8003 -72.7022 301° West 390 449 36,000  Level Miami Center
05:49PM 22.8553 -72.8042 300° West 390 449 36,000  Level Miami Center
05:50PM 22.9081 -72.9061 299° West 390 449 36,000  Level Miami Center
05:51PM 22.9628 -73.0058 301° West 390 449 36,000  Level Miami Center
05:52PM 23.0178 -73.1081 300° West 390 449 36,000  Level Miami Center
05:53PM 23.0786 -73.2122 302° West 385 443 36,000  Level Miami Center
05:54PM 23.1231 -73.3150 295° West 385 443 36,000  Level Miami Center
05:55PM 23.1797 -73.4172 301° West 390 449 36,000  Level Miami Center
05:56PM 23.2322 -73.5222 299° West 390 449 36,000  Level Miami Center
05:57PM 23.2844 -73.6247 299° West 385 443 36,000  Level Miami Center
05:58PM 23.3389 -73.7253 301° West 385 443 36,000  Level Miami Center
05:59PM 23.3975 -73.8300 301° West 390 449 36,000  Level Miami Center
06:00PM 23.4494 -73.9308 299° West 390 449 36,000  Level Miami Center
06:01PM 23.5039 -74.0361 299° West 390 449 36,000  Level Miami Center
06:02PM 23.5581 -74.1389 300° West 390 449 36,000  Level Miami Center
06:03PM 23.6142 -74.2444 300° West 390 449 36,000  Level Miami Center
06:04PM 23.6681 -74.3475 300° West 390 449 36,000  Level Miami Center
06:05PM 23.7222 -74.4531 299° West 390 449 36,000  Level Miami Center
06:06PM 23.7761 -74.5567 300° West 390 449 36,000  Level Miami Center
06:07PM 23.8297 -74.6600 300° West 390 449 36,000  Level Miami Center
06:08PM 23.8814 -74.7658 298° West 390 449 36,000  Level Miami Center
06:09PM 23.9372 -74.8697 300° West 390 449 36,000  Level Miami Center
06:10PM 23.9908 -74.9733 300° West 390 449 36,000  Level Miami Center
06:11PM 24.0444 -75.0794 299° West 390 449 36,000  Level Miami Center
06:12PM 24.0978 -75.1856 299° West 390 449 36,000  Level Miami Center
06:13PM 24.1514 -75.2897 299° West 390 449 36,000  Level Miami Center
06:14PM 24.2047 -75.3961 299° West 390 449 36,000  Level Miami Center
06:15PM 24.2578 -75.5003 299° West 390 449 36,000  Level Miami Center
06:16PM 24.3111 -75.6069 299° West 390 449 36,000  Level Miami Center
06:17PM 24.3661 -75.7114 300° West 390 449 36,000  Level Miami Center
06:18PM 24.4192 -75.8181 299° West 390 449 36,000  Level Miami Center
06:19PM 24.4700 -75.9228 298° West 390 449 36,000  Level Miami Center
06:20PM 24.5231 -76.0297 299° West 390 449 36,000  Level Miami Center
06:21PM 24.5758 -76.1367 299° West 390 449 36,000  Level Miami Center
06:22PM 24.6306 -76.2392 300° West 390 449 36,000  Level Miami Center
06:27PM 24.9302 -76.8475 298° West 403 464 36,000  Level FlightAware ADS-B
06:28PM 24.9581 -76.9041 298° West 403 464 36,000  Level FlightAware ADS-B
06:28PM 24.9852 -76.9595 298° West 403 464 36,000  Level FlightAware ADS-B
06:29PM 25.0134 -77.0172 298° West 403 464 36,000  Level FlightAware ADS-B
06:29PM 25.0380 -77.0676 298° West 403 464 36,000  Level FlightAware ADS-B
06:30PM 25.0666 -77.1261 298° West 403 464 36,000  Level FlightAware ADS-B
06:30PM 25.1018 -77.1983 298° West 403 464 36,000  Level FlightAware ADS-B
06:31PM 25.1301 -77.2564 298° West 404 465 36,000  Level FlightAware ADS-B
06:31PM 25.1559 -77.3096 298° West 404 465 36,000  Level FlightAware ADS-B
06:32PM 25.1826 -77.3644 298° West 405 466 36,000  Level FlightAware ADS-B
06:33PM 25.2185 -77.4385 298° West 404 465 36,000  Level FlightAware ADS-B
06:33PM 25.2437 -77.4903 298° West 404 465 36,000  Level FlightAware ADS-B
06:34PM 25.2774 -77.5599 298° West 403 464 36,000  Level FlightAware ADS-B
06:34PM 25.3071 -77.6212 298° West 404 465 36,000  Level FlightAware ADS-B
06:35PM 25.3397 -77.6889 297° West 407 468 36,000  Level FlightAware ADS-B
06:35PM 25.3752 -77.7627 297° West 407 468 36,000  Level FlightAware ADS-B
06:36PM 25.4086 -77.8321 297° West 408 470 36,000  Level FlightAware ADS-B
06:37PM 25.4350 -77.8870 298° West 408 470 36,000 -400 Level FlightAware ADS-B
06:37PM 25.4616 -77.9423 298° West 411 473 35,600 -938 Descending FlightAware ADS-B
06:38PM 25.4908 -78.0032 297° West 415 478 35,000 -1,014 Descending FlightAware ADS-B
06:38PM 25.5219 -78.0760 287° West 416 479 34,400 -985 Descending FlightAware ADS-B
06:39PM 25.5341 -78.1351 282° West 417 480 33,900 -1,000 Descending FlightAware ADS-B
06:39PM 25.5481 -78.1989 283° West 423 487 33,400 -1,029 Descending FlightAware ADS-B
06:40PM 25.5662 -78.2815 283° West 430 495 32,700 -963 Descending FlightAware ADS-B
06:41PM 25.5855 -78.3708 283° West 434 499 32,100 -917 Descending FlightAware ADS-B
06:41PM 25.5997 -78.4374 283° West 430 495 31,600 -1,082 Descending FlightAware ADS-B
06:42PM 25.6139 -78.5036 283° West 432 497 31,000 -2,118 Descending FlightAware ADS-B
06:42PM 25.6312 -78.5847 283° West 434 499 29,200 -3,043 Descending FlightAware ADS-B
06:43PM 25.6454 -78.6504 283° West 435 501 27,500 -3,246 Descending FlightAware ADS-B
06:43PM 25.6595 -78.7167 282° West 430 495 25,900 -3,127 Descending FlightAware ADS-B
06:44PM 25.6776 -78.8038 283° West 425 489 23,800 -3,127 Descending FlightAware ADS-B
06:45PM 25.6906 -78.8656 283° West 418 481 22,200 -2,912 Descending FlightAware ADS-B
06:45PM 25.7077 -78.9461 283° West 427 491 20,500 -2,704 Descending FlightAware ADS-B
06:46PM 25.7226 -79.0176 283° West 427 491 19,000 -2,719 Descending FlightAware ADS-B
06:46PM 25.7363 -79.0820 283° West 419 482 17,600 -2,763 Descending FlightAware ADS-B
06:47PM 25.7562 -79.1763 283° West 409 471 15,500 -1,947 Descending FlightAware ADS-B
06:48PM 25.7703 -79.2517 283° West 423 487 13,900 -2,085 Descending Miami Center
06:49PM 25.7894 -79.3514 282° West 385 443 11,400 -2,700 Descending Miami Center
06:49PM 25.7936 -79.3561 314° West 397 457 11,200 -4,209 Descending Miami Center
06:50PM 25.8147 -79.4742 281° West 359 413 6,700 -2,644 Descending Miami Center
06:51PM 25.8317 -79.5692 281° West 286 329 6,000 -341 Descending Miami Center
06:52PM 25.8572 -79.6553 288° West 280 322 6,000  Level Miami Center
06:53PM 25.8892 -79.7297 296° West 272 313 6,000  Level Miami Center
06:54PM 25.9231 -79.8092 295° West 273 314 6,000 -50 Level Miami Center
06:55PM 25.9572 -79.8792 299° West 274 315 5,900 -50 Descending Miami Center
06:56PM 25.9869 -79.9539 294° West 274 315 5,900  Level Miami Center
06:57PM 26.0314 -80.0244 305° West 274 315 5,900  Level Miami Center
06:58PM 26.0739 -80.0950 304° West 274 315 5,900 -333 Level Miami Center
06:59PM 26.1158 -80.1725 301° West 260 299 5,200 -425 Descending Miami Center
07:00PM 26.1269 -80.2422 280° West 215 247 5,000 -98 Descending Miami Center
07:01PM 26.1294 -80.3094 272° West 216 249 5,000 -49 Level Miami Center
07:02PM 26.1194 -80.3739 260° West 217 250 4,900 -541 Descending Miami Center
07:03PM 26.0761 -80.3611 165° South 193 222 3,900 -1,230 Descending Miami Center
07:04PM 26.0772 -80.3056 89° East 171 197 2,400 -1,180 Descending Miami Center
07:05PM 26.0744 -80.2522 93° East 167 192 1,500 -787 Descending Miami Center
07:06PM 26.0753 -80.2106 89° East 120 138 800 -689 Descending Miami Center
07:08PM 26.0667 -80.1500 77° East  Level FlightAware Approximate
07:15PM 26.0726 -80.1527 77° East  Level Estimated
07:16PM 26.0667 -80.1500 77° East  Level FlightAware Approximate